sensor_id;sensor_type;location;lat;lon;timestamp;pressure;altitude;pressure_sealevel;temperature;humidity
5703;BME280;2876;51.738;10.050;2022-08-19T00:05:11;98944.16;;;21.27;94.07
5703;BME280;2876;51.738;10.050;2022-08-19T00:11:13;98936.03;;;21.07;94.43
5703;BME280;2876;51.738;10.050;2022-08-19T00:17:26;98930.94;;;20.90;93.97
5703;BME280;2876;51.738;10.050;2022-08-19T00:23:28;98922.50;;;20.82;93.69
5703;BME280;2876;51.738;10.050;2022-08-19T00:29:31;98933.97;;;20.63;93.65
5703;BME280;2876;51.738;10.050;2022-08-19T00:35:33;98921.69;;;20.76;93.38
5703;BME280;2876;51.738;10.050;2022-08-19T00:41:35;98922.00;;;20.59;93.71
5703;BME280;2876;51.738;10.050;2022-08-19T00:47:39;98922.81;;;20.60;92.53
5703;BME280;2876;51.738;10.050;2022-08-19T00:53:41;98920.63;;;20.51;92.96
5703;BME280;2876;51.738;10.050;2022-08-19T00:59:48;98910.00;;;20.30;94.33
5703;BME280;2876;51.738;10.050;2022-08-19T01:06:03;98908.09;;;20.40;94.13
5703;BME280;2876;51.738;10.050;2022-08-19T01:12:07;98906.19;;;20.41;94.15
5703;BME280;2876;51.738;10.050;2022-08-19T01:18:13;98905.91;;;20.47;92.46
5703;BME280;2876;51.738;10.050;2022-08-19T01:24:15;98915.44;;;20.24;93.76
5703;BME280;2876;51.738;10.050;2022-08-19T01:30:23;98908.34;;;20.39;92.86
5703;BME280;2876;51.738;10.050;2022-08-19T01:36:44;98901.56;;;20.26;93.39
5703;BME280;2876;51.738;10.050;2022-08-19T01:42:52;98900.22;;;20.13;94.63
5703;BME280;2876;51.738;10.050;2022-08-19T01:48:54;98897.47;;;20.23;93.96
5703;BME280;2876;51.738;10.050;2022-08-19T01:54:56;98898.56;;;20.33;93.59
5703;BME280;2876;51.738;10.050;2022-08-19T02:00:59;98892.28;;;20.47;92.61
5703;BME280;2876;51.738;10.050;2022-08-19T02:07:01;98886.31;;;20.25;93.78
5703;BME280;2876;51.738;10.050;2022-08-19T02:13:03;98886.31;;;20.25;93.40
5703;BME280;2876;51.738;10.050;2022-08-19T02:19:05;98886.59;;;20.23;93.90
5703;BME280;2876;51.738;10.050;2022-08-19T02:25:10;98884.94;;;19.97;94.69
5703;BME280;2876;51.738;10.050;2022-08-19T02:31:17;98881.16;;;20.03;94.76
5703;BME280;2876;51.738;10.050;2022-08-19T02:37:19;98881.97;;;20.04;95.12
5703;BME280;2876;51.738;10.050;2022-08-19T02:43:40;98882.22;;;19.97;95.62
5703;BME280;2876;51.738;10.050;2022-08-19T02:50:04;98880.34;;;20.08;94.92
5703;BME280;2876;51.738;10.050;2022-08-19T02:56:07;98898.56;;;19.97;95.22
5703;BME280;2876;51.738;10.050;2022-08-19T03:02:09;98879.25;;;20.04;94.87
5703;BME280;2876;51.738;10.050;2022-08-19T03:08:12;98895.03;;;19.96;95.46
5703;BME280;2876;51.738;10.050;2022-08-19T03:14:14;98885.75;;;20.02;94.26
5703;BME280;2876;51.738;10.050;2022-08-19T03:20:17;98896.38;;;19.89;95.09
5703;BME280;2876;51.738;10.050;2022-08-19T03:26:19;98898.03;;;20.00;93.65
5703;BME280;2876;51.738;10.050;2022-08-19T03:32:21;98901.84;;;19.99;94.21
5703;BME280;2876;51.738;10.050;2022-08-19T03:38:44;98910.53;;;19.86;94.30
5703;BME280;2876;51.738;10.050;2022-08-19T03:44:46;98912.97;;;19.77;94.87
5703;BME280;2876;51.738;10.050;2022-08-19T03:50:48;98913.53;;;19.84;94.82
5703;BME280;2876;51.738;10.050;2022-08-19T03:56:54;98924.97;;;19.86;94.88
5703;BME280;2876;51.738;10.050;2022-08-19T04:02:56;98926.31;;;19.73;96.25
5703;BME280;2876;51.738;10.050;2022-08-19T04:09:10;98919.25;;;19.72;96.07
5703;BME280;2876;51.738;10.050;2022-08-19T04:15:13;98921.44;;;19.86;95.53
5703;BME280;2876;51.738;10.050;2022-08-19T04:21:23;98925.72;;;19.66;96.20
5703;BME280;2876;51.738;10.050;2022-08-19T04:27:26;98921.13;;;19.67;95.64
5703;BME280;2876;51.738;10.050;2022-08-19T04:33:28;98918.94;;;19.69;95.30
5703;BME280;2876;51.738;10.050;2022-08-19T04:39:30;98908.34;;;19.93;92.90
5703;BME280;2876;51.738;10.050;2022-08-19T04:45:51;98898.78;;;19.60;94.48
5703;BME280;2876;51.738;10.050;2022-08-19T04:51:57;98901.00;;;19.68;93.57
5703;BME280;2876;51.738;10.050;2022-08-19T04:57:59;98903.16;;;19.61;93.68
5703;BME280;2876;51.738;10.050;2022-08-19T05:04:04;98905.34;;;19.84;92.79
5703;BME280;2876;51.738;10.050;2022-08-19T05:10:07;98915.41;;;19.73;93.07
5703;BME280;2876;51.738;10.050;2022-08-19T05:16:11;98926.03;;;19.80;92.69
5703;BME280;2876;51.738;10.050;2022-08-19T05:22:14;98928.78;;;19.85;92.21
5703;BME280;2876;51.738;10.050;2022-08-19T05:28:34;98934.22;;;19.85;92.82
5703;BME280;2876;51.738;10.050;2022-08-19T05:34:37;98923.59;;;19.94;91.06
5703;BME280;2876;51.738;10.050;2022-08-19T05:40:40;98911.13;;;20.08;90.98
5703;BME280;2876;51.738;10.050;2022-08-19T05:46:44;98911.09;;;20.23;89.52
5703;BME280;2876;51.738;10.050;2022-08-19T05:52:48;98925.53;;;20.14;89.51
5703;BME280;2876;51.738;10.050;2022-08-19T05:58:51;98932.88;;;20.28;88.45
5703;BME280;2876;51.738;10.050;2022-08-19T06:04:57;98936.97;;;20.51;85.85
5703;BME280;2876;51.738;10.050;2022-08-19T06:11:14;98935.63;;;20.49;85.88
5703;BME280;2876;51.738;10.050;2022-08-19T06:17:19;98939.94;;;20.75;83.30
5703;BME280;2876;51.738;10.050;2022-08-19T06:23:22;98944.59;;;20.70;83.04
5703;BME280;2876;51.738;10.050;2022-08-19T06:29:26;98957.69;;;20.27;84.59
5703;BME280;2876;51.738;10.050;2022-08-19T06:35:30;98961.25;;;20.63;83.49
5703;BME280;2876;51.738;10.050;2022-08-19T06:41:37;98963.69;;;20.60;83.41
5703;BME280;2876;51.738;10.050;2022-08-19T06:47:47;98976.44;;;21.00;80.79
5703;BME280;2876;51.738;10.050;2022-08-19T06:53:53;98984.34;;;21.01;80.81
5703;BME280;2876;51.738;10.050;2022-08-19T06:59:56;98996.31;;;21.11;81.19
5703;BME280;2876;51.738;10.050;2022-08-19T07:06:08;98987.06;;;21.01;80.50
5703;BME280;2876;51.738;10.050;2022-08-19T07:12:32;99016.47;;;21.20;79.83
5703;BME280;2876;51.738;10.050;2022-08-19T07:18:37;99015.13;;;21.17;79.81
5703;BME280;2876;51.738;10.050;2022-08-19T07:24:44;99036.00;;;21.68;77.09
5703;BME280;2876;51.738;10.050;2022-08-19T07:30:52;99034.38;;;21.62;77.50
5703;BME280;2876;51.738;10.050;2022-08-19T07:36:56;99043.88;;;21.74;75.52
5703;BME280;2876;51.738;10.050;2022-08-19T07:42:59;99053.50;;;21.51;75.74
5703;BME280;2876;51.738;10.050;2022-08-19T07:49:02;99060.34;;;21.54;75.94
5703;BME280;2876;51.738;10.050;2022-08-19T07:55:07;99068.91;;;21.92;74.51
5703;BME280;2876;51.738;10.050;2022-08-19T08:01:30;99066.13;;;22.12;73.58
5703;BME280;2876;51.738;10.050;2022-08-19T08:07:32;99074.28;;;22.07;74.46
5703;BME280;2876;51.738;10.050;2022-08-19T08:13:53;99075.50;;;21.91;74.33
5703;BME280;2876;51.738;10.050;2022-08-19T08:20:05;99078.69;;;22.13;73.92
5703;BME280;2876;51.738;10.050;2022-08-19T08:26:08;99075.34;;;22.26;73.01
5703;BME280;2876;51.738;10.050;2022-08-19T08:32:10;99071.50;;;22.62;72.83
5703;BME280;2876;51.738;10.050;2022-08-19T08:38:15;99083.72;;;22.74;71.09
5703;BME280;2876;51.738;10.050;2022-08-19T08:44:39;99085.00;;;22.87;70.90
5703;BME280;2876;51.738;10.050;2022-08-19T08:50:47;99092.88;;;23.28;67.92
5703;BME280;2876;51.738;10.050;2022-08-19T08:56:53;99090.38;;;23.32;67.37
5703;BME280;2876;51.738;10.050;2022-08-19T09:02:58;99098.66;;;23.50;67.00
5703;BME280;2876;51.738;10.050;2022-08-19T09:09:30;99086.09;;;23.73;65.72
5703;BME280;2876;51.738;10.050;2022-08-19T09:15:43;99096.47;;;24.00;64.45
5703;BME280;2876;51.738;10.050;2022-08-19T09:21:48;99098.50;;;24.89;61.52
5703;BME280;2876;51.738;10.050;2022-08-19T09:27:53;99104.22;;;24.74;61.81
5703;BME280;2876;51.738;10.050;2022-08-19T09:34:03;99096.97;;;25.76;57.81
5703;BME280;2876;51.738;10.050;2022-08-19T09:40:07;99084.91;;;26.63;55.60
5703;BME280;2876;51.738;10.050;2022-08-19T09:46:13;99102.63;;;27.47;51.77
5703;BME280;2876;51.738;10.050;2022-08-19T09:52:18;99091.28;;;27.40;51.34
5703;BME280;2876;51.738;10.050;2022-08-19T09:58:21;99094.31;;;28.18;50.97
5703;BME280;2876;51.738;10.050;2022-08-19T10:04:27;99088.53;;;28.80;47.98
5703;BME280;2876;51.738;10.050;2022-08-19T10:10:50;99084.88;;;29.23;47.39
5703;BME280;2876;51.738;10.050;2022-08-19T10:16:52;99072.22;;;29.69;45.67
5703;BME280;2876;51.738;10.050;2022-08-19T10:22:54;99076.63;;;29.99;44.29
5703;BME280;2876;51.738;10.050;2022-08-19T10:28:57;99067.09;;;30.80;42.94
5703;BME280;2876;51.738;10.050;2022-08-19T10:35:00;99053.78;;;30.74;43.35
5703;BME280;2876;51.738;10.050;2022-08-19T10:41:20;99038.59;;;30.92;42.61
5703;BME280;2876;51.738;10.050;2022-08-19T10:47:24;99029.81;;;31.97;40.47
5703;BME280;2876;51.738;10.050;2022-08-19T10:53:33;99031.16;;;32.27;38.63
5703;BME280;2876;51.738;10.050;2022-08-19T10:59:37;99029.63;;;32.42;37.86
5703;BME280;2876;51.738;10.050;2022-08-19T11:05:40;99034.69;;;33.40;36.37
5703;BME280;2876;51.738;10.050;2022-08-19T11:11:43;99023.22;;;34.28;34.90
5703;BME280;2876;51.738;10.050;2022-08-19T11:17:45;99010.09;;;34.87;32.56
5703;BME280;2876;51.738;10.050;2022-08-19T11:23:52;99008.88;;;35.76;30.53
5703;BME280;2876;51.738;10.050;2022-08-19T11:29:55;99012.50;;;36.06;29.81
5703;BME280;2876;51.738;10.050;2022-08-19T11:35:58;99007.97;;;35.22;29.90
5703;BME280;2876;51.738;10.050;2022-08-19T11:42:05;99000.84;;;35.74;28.79
5703;BME280;2876;51.738;10.050;2022-08-19T11:48:27;98993.41;;;35.10;29.78
5703;BME280;2876;51.738;10.050;2022-08-19T11:54:29;98991.88;;;36.15;28.05
5703;BME280;2876;51.738;10.050;2022-08-19T12:00:34;98989.09;;;37.71;26.03
5703;BME280;2876;51.738;10.050;2022-08-19T12:06:39;98988.81;;;37.87;27.00
5703;BME280;2876;51.738;10.050;2022-08-19T12:12:42;98981.88;;;38.43;25.28
5703;BME280;2876;51.738;10.050;2022-08-19T12:18:55;98973.41;;;37.11;27.00
5703;BME280;2876;51.738;10.050;2022-08-19T12:24:57;98970.47;;;37.41;27.55
5703;BME280;2876;51.738;10.050;2022-08-19T12:31:00;98962.38;;;38.86;24.94
5703;BME280;2876;51.738;10.050;2022-08-19T12:37:04;98957.16;;;38.80;24.97
5703;BME280;2876;51.738;10.050;2022-08-19T12:43:07;98965.13;;;37.25;27.42
5703;BME280;2876;51.738;10.050;2022-08-19T12:49:09;98965.53;;;38.66;25.71
5703;BME280;2876;51.738;10.050;2022-08-19T12:55:32;98969.59;;;39.15;24.39
5703;BME280;2876;51.738;10.050;2022-08-19T13:01:34;98954.94;;;40.38;22.58
5703;BME280;2876;51.738;10.050;2022-08-19T13:07:37;98955.69;;;36.59;26.61
5703;BME280;2876;51.738;10.050;2022-08-19T13:13:41;98958.97;;;37.05;26.88
5703;BME280;2876;51.738;10.050;2022-08-19T13:19:44;98953.78;;;37.55;25.59
5703;BME280;2876;51.738;10.050;2022-08-19T13:26:00;98947.88;;;37.20;25.12
5703;BME280;2876;51.738;10.050;2022-08-19T13:32:06;98945.72;;;38.13;24.37
5703;BME280;2876;51.738;10.050;2022-08-19T13:38:28;98941.56;;;38.97;23.71
5703;BME280;2876;51.738;10.050;2022-08-19T13:44:30;98941.84;;;38.39;24.27
5703;BME280;2876;51.738;10.050;2022-08-19T13:50:33;98950.81;;;39.26;22.86
5703;BME280;2876;51.738;10.050;2022-08-19T13:56:49;98947.47;;;37.18;24.03
5703;BME280;2876;51.738;10.050;2022-08-19T14:02:54;98930.75;;;37.28;24.87
5703;BME280;2876;51.738;10.050;2022-08-19T14:08:57;98934.91;;;37.45;23.96
5703;BME280;2876;51.738;10.050;2022-08-19T14:15:00;98925.25;;;38.05;23.59
5703;BME280;2876;51.738;10.050;2022-08-19T14:21:04;98936.47;;;38.08;23.42
5703;BME280;2876;51.738;10.050;2022-08-19T14:27:07;98954.00;;;39.43;21.56
5703;BME280;2876;51.738;10.050;2022-08-19T14:33:09;98952.63;;;40.19;20.66
5703;BME280;2876;51.738;10.050;2022-08-19T14:39:11;98948.31;;;39.82;21.49
5703;BME280;2876;51.738;10.050;2022-08-19T14:45:13;98957.34;;;41.06;20.51
5703;BME280;2876;51.738;10.050;2022-08-19T14:51:16;98963.22;;;39.29;21.31
5703;BME280;2876;51.738;10.050;2022-08-19T14:57:18;98968.75;;;38.72;22.62
5703;BME280;2876;51.738;10.050;2022-08-19T15:03:21;98983.78;;;38.28;23.39
5703;BME280;2876;51.738;10.050;2022-08-19T15:09:23;98973.22;;;38.91;21.37
5703;BME280;2876;51.738;10.050;2022-08-19T15:15:25;98958.31;;;38.69;22.29
5703;BME280;2876;51.738;10.050;2022-08-19T15:21:29;98946.28;;;36.41;24.24
5703;BME280;2876;51.738;10.050;2022-08-19T15:27:31;98946.75;;;35.56;25.72
5703;BME280;2876;51.738;10.050;2022-08-19T15:33:35;98950.66;;;35.25;26.13
5703;BME280;2876;51.738;10.050;2022-08-19T15:39:49;98959.75;;;33.98;27.76
5703;BME280;2876;51.738;10.050;2022-08-19T15:45:52;98951.44;;;33.00;28.87
5703;BME280;2876;51.738;10.050;2022-08-19T15:51:54;98955.72;;;33.96;27.81
5703;BME280;2876;51.738;10.050;2022-08-19T15:58:07;98953.09;;;34.22;28.02
5703;BME280;2876;51.738;10.050;2022-08-19T16:04:30;98957.34;;;33.46;28.62
5703;BME280;2876;51.738;10.050;2022-08-19T16:10:51;98964.63;;;32.59;30.44
5703;BME280;2876;51.738;10.050;2022-08-19T16:16:53;98952.09;;;32.65;29.88
5703;BME280;2876;51.738;10.050;2022-08-19T16:22:58;98936.53;;;32.76;29.53
5703;BME280;2876;51.738;10.050;2022-08-19T16:29:02;98943.69;;;34.11;28.90
5703;BME280;2876;51.738;10.050;2022-08-19T16:35:09;98937.00;;;33.77;28.36
5703;BME280;2876;51.738;10.050;2022-08-19T16:41:12;98932.69;;;32.37;29.52
5703;BME280;2876;51.738;10.050;2022-08-19T16:47:17;98941.88;;;31.85;31.63
5703;BME280;2876;51.738;10.050;2022-08-19T16:53:25;98941.44;;;33.97;27.85
5703;BME280;2876;51.738;10.050;2022-08-19T16:59:29;98941.84;;;35.00;26.23
5703;BME280;2876;51.738;10.050;2022-08-19T17:05:31;98941.38;;;32.79;28.54
5703;BME280;2876;51.738;10.050;2022-08-19T17:11:34;98951.03;;;32.14;30.32
5703;BME280;2876;51.738;10.050;2022-08-19T17:17:36;98939.28;;;32.76;29.25
5703;BME280;2876;51.738;10.050;2022-08-19T17:23:39;98939.06;;;33.13;29.66
5703;BME280;2876;51.738;10.050;2022-08-19T17:29:44;98947.19;;;33.38;28.80
5703;BME280;2876;51.738;10.050;2022-08-19T17:35:48;98946.41;;;32.18;30.48
5703;BME280;2876;51.738;10.050;2022-08-19T17:41:50;98940.94;;;30.95;31.85
5703;BME280;2876;51.738;10.050;2022-08-19T17:47:53;98952.09;;;29.78;34.40
5703;BME280;2876;51.738;10.050;2022-08-19T17:53:56;98950.28;;;29.23;35.45
5703;BME280;2876;51.738;10.050;2022-08-19T17:59:58;98953.38;;;28.75;36.97
5703;BME280;2876;51.738;10.050;2022-08-19T18:06:02;98943.22;;;28.49;37.80
5703;BME280;2876;51.738;10.050;2022-08-19T18:12:06;98932.03;;;28.11;39.19
5703;BME280;2876;51.738;10.050;2022-08-19T18:18:08;98943.38;;;27.84;40.32
5703;BME280;2876;51.738;10.050;2022-08-19T18:24:16;98949.94;;;27.39;41.12
5703;BME280;2876;51.738;10.050;2022-08-19T18:30:19;98953.88;;;26.76;42.35
5703;BME280;2876;51.738;10.050;2022-08-19T18:36:23;98959.28;;;26.00;43.92
5703;BME280;2876;51.738;10.050;2022-08-19T18:42:46;98956.00;;;25.48;45.90
5703;BME280;2876;51.738;10.050;2022-08-19T18:49:08;98966.25;;;24.87;47.62
5703;BME280;2876;51.738;10.050;2022-08-19T18:55:11;98962.72;;;24.54;48.26
5703;BME280;2876;51.738;10.050;2022-08-19T19:01:18;98969.00;;;24.22;48.72
5703;BME280;2876;51.738;10.050;2022-08-19T19:07:22;98988.78;;;24.00;49.35
5703;BME280;2876;51.738;10.050;2022-08-19T19:13:24;98999.88;;;23.90;49.52
5703;BME280;2876;51.738;10.050;2022-08-19T19:19:30;98999.63;;;23.67;49.78
5703;BME280;2876;51.738;10.050;2022-08-19T19:25:33;98999.22;;;23.55;51.05
5703;BME280;2876;51.738;10.050;2022-08-19T19:31:52;99016.81;;;23.25;51.49
5703;BME280;2876;51.738;10.050;2022-08-19T19:37:57;99020.38;;;22.96;52.33
5703;BME280;2876;51.738;10.050;2022-08-19T19:44:00;99018.75;;;22.95;53.18
5703;BME280;2876;51.738;10.050;2022-08-19T19:50:22;99023.47;;;22.90;53.41
5703;BME280;2876;51.738;10.050;2022-08-19T19:56:25;99038.09;;;22.70;54.42
5703;BME280;2876;51.738;10.050;2022-08-19T20:02:27;99040.63;;;22.61;55.00
5703;BME280;2876;51.738;10.050;2022-08-19T20:08:29;99049.09;;;22.65;55.29
5703;BME280;2876;51.738;10.050;2022-08-19T20:14:49;99062.13;;;22.39;56.04
5703;BME280;2876;51.738;10.050;2022-08-19T20:20:52;99057.53;;;22.29;56.56
5703;BME280;2876;51.738;10.050;2022-08-19T20:26:54;99051.06;;;22.15;56.90
5703;BME280;2876;51.738;10.050;2022-08-19T20:32:56;99067.69;;;22.23;57.31
5703;BME280;2876;51.738;10.050;2022-08-19T20:38:59;99057.91;;;22.17;57.03
5703;BME280;2876;51.738;10.050;2022-08-19T20:45:03;99065.78;;;22.24;56.57
5703;BME280;2876;51.738;10.050;2022-08-19T20:51:18;99059.81;;;22.17;56.58
5703;BME280;2876;51.738;10.050;2022-08-19T20:57:21;99057.94;;;22.12;57.58
5703;BME280;2876;51.738;10.050;2022-08-19T21:03:27;99069.69;;;22.13;57.13
5703;BME280;2876;51.738;10.050;2022-08-19T21:09:29;99083.31;;;22.18;57.65
5703;BME280;2876;51.738;10.050;2022-08-19T21:15:32;99086.28;;;22.16;57.27
5703;BME280;2876;51.738;10.050;2022-08-19T21:21:35;99084.41;;;22.17;57.40
5703;BME280;2876;51.738;10.050;2022-08-19T21:27:37;99090.66;;;22.22;57.80
5703;BME280;2876;51.738;10.050;2022-08-19T21:33:39;99086.53;;;22.25;57.91
5703;BME280;2876;51.738;10.050;2022-08-19T21:39:41;99083.34;;;22.02;58.54
5703;BME280;2876;51.738;10.050;2022-08-19T21:45:45;99078.75;;;21.93;58.54
5703;BME280;2876;51.738;10.050;2022-08-19T21:51:49;99080.72;;;21.82;59.56
5703;BME280;2876;51.738;10.050;2022-08-19T21:57:51;99080.44;;;21.78;59.84
5703;BME280;2876;51.738;10.050;2022-08-19T22:03:53;99077.81;;;21.58;60.81
5703;BME280;2876;51.738;10.050;2022-08-19T22:09:55;99082.41;;;21.68;59.64
5703;BME280;2876;51.738;10.050;2022-08-19T22:15:57;99061.19;;;21.49;60.29
5703;BME280;2876;51.738;10.050;2022-08-19T22:22:00;99065.53;;;21.50;60.23
5703;BME280;2876;51.738;10.050;2022-08-19T22:28:06;99057.31;;;21.61;61.09
5703;BME280;2876;51.738;10.050;2022-08-19T22:34:11;99057.38;;;21.40;61.26
5703;BME280;2876;51.738;10.050;2022-08-19T22:40:14;99063.66;;;21.15;61.57
5703;BME280;2876;51.738;10.050;2022-08-19T22:46:16;99064.53;;;20.90;62.36
5703;BME280;2876;51.738;10.050;2022-08-19T22:52:18;99064.28;;;20.71;62.20
5703;BME280;2876;51.738;10.050;2022-08-19T22:58:21;99069.97;;;20.75;62.48
5703;BME280;2876;51.738;10.050;2022-08-19T23:04:29;99078.97;;;20.65;63.22
5703;BME280;2876;51.738;10.050;2022-08-19T23:10:31;99074.09;;;20.62;62.94
5703;BME280;2876;51.738;10.050;2022-08-19T23:16:33;99069.44;;;20.68;63.34
5703;BME280;2876;51.738;10.050;2022-08-19T23:22:38;99076.53;;;20.64;63.64
5703;BME280;2876;51.738;10.050;2022-08-19T23:28:40;99072.16;;;20.63;64.00
5703;BME280;2876;51.738;10.050;2022-08-19T23:35:01;99078.69;;;20.51;64.83
5703;BME280;2876;51.738;10.050;2022-08-19T23:41:06;99085.72;;;20.42;65.00
5703;BME280;2876;51.738;10.050;2022-08-19T23:47:08;99082.50;;;20.56;65.77
5703;BME280;2876;51.738;10.050;2022-08-19T23:53:11;99082.50;;;20.71;65.81
5703;BME280;2876;51.738;10.050;2022-08-19T23:59:14;99073.50;;;20.75;66.14
